sensor_id;sensor_type;location;lat;lon;timestamp;pressure;altitude;pressure_sealevel;temperature;humidity
48204;BME280;33994;50.998;5.864;2023-06-22T00:02:40;101293.59;;;21.22;58.61
48204;BME280;33994;50.998;5.864;2023-06-22T00:05:43;101284.66;;;21.23;58.33
48204;BME280;33994;50.998;5.864;2023-06-22T00:08:46;101296.31;;;21.20;58.38
48204;BME280;33994;50.998;5.864;2023-06-22T00:11:50;101294.13;;;21.11;58.40
48204;BME280;33994;50.998;5.864;2023-06-22T00:14:53;101295.28;;;21.05;59.03
48204;BME280;33994;50.998;5.864;2023-06-22T00:17:58;101296.22;;;21.04;59.12
48204;BME280;33994;50.998;5.864;2023-06-22T00:21:01;101299.69;;;21.06;58.81
48204;BME280;33994;50.998;5.864;2023-06-22T00:24:04;101296.22;;;21.04;58.92
48204;BME280;33994;50.998;5.864;2023-06-22T00:27:08;101292.81;;;21.02;59.10
48204;BME280;33994;50.998;5.864;2023-06-22T00:30:11;101287.28;;;21.05;58.96
48204;BME280;33994;50.998;5.864;2023-06-22T00:33:16;101284.81;;;21.02;59.42
48204;BME280;33994;50.998;5.864;2023-06-22T00:36:19;101286.06;;;20.95;59.30
48204;BME280;33994;50.998;5.864;2023-06-22T00:39:22;101287.78;;;20.96;59.18
48204;BME280;33994;50.998;5.864;2023-06-22T00:42:25;101289.59;;;20.96;59.34
48204;BME280;33994;50.998;5.864;2023-06-22T00:45:29;101290.59;;;20.93;59.50
48204;BME280;33994;50.998;5.864;2023-06-22T00:48:33;101289.03;;;20.89;59.44
48204;BME280;33994;50.998;5.864;2023-06-22T00:51:38;101284.03;;;20.83;59.51
48204;BME280;33994;50.998;5.864;2023-06-22T00:54:41;101282.88;;;20.71;59.66
48204;BME280;33994;50.998;5.864;2023-06-22T00:57:45;101278.69;;;20.65;59.85
48204;BME280;33994;50.998;5.864;2023-06-22T01:00:48;101288.31;;;20.68;59.93
48204;BME280;33994;50.998;5.864;2023-06-22T01:03:53;101284.56;;;20.72;59.75
48204;BME280;33994;50.998;5.864;2023-06-22T01:07:05;101273.09;;;20.72;60.22
48204;BME280;33994;50.998;5.864;2023-06-22T01:10:16;101271.66;;;20.64;60.08
48204;BME280;33994;50.998;5.864;2023-06-22T01:13:27;101259.63;;;20.57;60.44
48204;BME280;33994;50.998;5.864;2023-06-22T01:16:31;101261.66;;;20.52;60.54
48204;BME280;33994;50.998;5.864;2023-06-22T01:19:41;101260.00;;;20.50;60.74
48204;BME280;33994;50.998;5.864;2023-06-22T01:22:59;101261.94;;;20.46;60.93
48204;BME280;33994;50.998;5.864;2023-06-22T01:26:10;101255.94;;;20.42;61.05
48204;BME280;33994;50.998;5.864;2023-06-22T01:29:17;101256.00;;;20.41;61.52
48204;BME280;33994;50.998;5.864;2023-06-22T01:32:21;101251.63;;;20.40;61.84
48204;BME280;33994;50.998;5.864;2023-06-22T01:35:25;101242.72;;;20.41;61.98
48204;BME280;33994;50.998;5.864;2023-06-22T01:38:29;101243.66;;;20.40;62.44
48204;BME280;33994;50.998;5.864;2023-06-22T01:41:36;101240.06;;;20.41;62.71
48204;BME280;33994;50.998;5.864;2023-06-22T01:44:41;101248.34;;;20.35;63.22
48204;BME280;33994;50.998;5.864;2023-06-22T01:47:44;101244.22;;;20.28;63.44
48204;BME280;33994;50.998;5.864;2023-06-22T01:50:47;101240.72;;;20.27;63.68
48204;BME280;33994;50.998;5.864;2023-06-22T01:53:50;101246.97;;;20.26;63.95
48204;BME280;33994;50.998;5.864;2023-06-22T01:56:54;101251.25;;;20.29;64.03
48204;BME280;33994;50.998;5.864;2023-06-22T02:00:00;101246.88;;;20.28;64.34
48204;BME280;33994;50.998;5.864;2023-06-22T02:03:08;101241.78;;;20.23;64.59
48204;BME280;33994;50.998;5.864;2023-06-22T02:06:16;101242.66;;;20.24;64.62
48204;BME280;33994;50.998;5.864;2023-06-22T02:09:21;101235.53;;;20.24;64.87
48204;BME280;33994;50.998;5.864;2023-06-22T02:12:26;101236.72;;;20.18;65.09
48204;BME280;33994;50.998;5.864;2023-06-22T02:15:32;101233.41;;;20.13;65.75
48204;BME280;33994;50.998;5.864;2023-06-22T02:18:35;101233.84;;;20.04;66.24
48204;BME280;33994;50.998;5.864;2023-06-22T02:21:39;101225.19;;;20.01;66.79
48204;BME280;33994;50.998;5.864;2023-06-22T02:24:42;101219.88;;;20.01;67.07
48204;BME280;33994;50.998;5.864;2023-06-22T02:27:45;101222.81;;;19.94;67.46
48204;BME280;33994;50.998;5.864;2023-06-22T02:30:49;101222.25;;;19.88;68.29
48204;BME280;33994;50.998;5.864;2023-06-22T02:33:52;101216.81;;;19.91;68.21
48204;BME280;33994;50.998;5.864;2023-06-22T02:36:56;101210.78;;;19.87;68.61
48204;BME280;33994;50.998;5.864;2023-06-22T02:39:59;101217.81;;;19.88;68.80
48204;BME280;33994;50.998;5.864;2023-06-22T02:43:02;101215.38;;;19.84;69.10
48204;BME280;33994;50.998;5.864;2023-06-22T02:46:07;101209.41;;;19.79;69.58
48204;BME280;33994;50.998;5.864;2023-06-22T02:49:10;101208.50;;;19.80;69.71
48204;BME280;33994;50.998;5.864;2023-06-22T02:52:14;101203.31;;;19.77;70.24
48204;BME280;33994;50.998;5.864;2023-06-22T02:55:17;101196.44;;;19.73;70.65
48204;BME280;33994;50.998;5.864;2023-06-22T02:58:20;101201.75;;;19.73;70.94
48204;BME280;33994;50.998;5.864;2023-06-22T03:01:25;101199.81;;;19.76;71.21
48204;BME280;33994;50.998;5.864;2023-06-22T03:04:28;101192.03;;;19.72;71.62
48204;BME280;33994;50.998;5.864;2023-06-22T03:07:31;101181.66;;;19.67;72.22
48204;BME280;33994;50.998;5.864;2023-06-22T03:10:34;101177.66;;;19.58;72.93
48204;BME280;33994;50.998;5.864;2023-06-22T03:13:37;101173.34;;;19.56;73.55
48204;BME280;33994;50.998;5.864;2023-06-22T03:16:42;101168.03;;;19.56;73.77
48204;BME280;33994;50.998;5.864;2023-06-22T03:19:45;101167.31;;;19.52;74.12
48204;BME280;33994;50.998;5.864;2023-06-22T03:22:48;101167.19;;;19.55;74.42
48204;BME280;33994;50.998;5.864;2023-06-22T03:25:51;101166.41;;;19.53;74.62
48204;BME280;33994;50.998;5.864;2023-06-22T03:28:55;101169.31;;;19.47;74.96
48204;BME280;33994;50.998;5.864;2023-06-22T03:31:59;101166.72;;;19.45;75.49
48204;BME280;33994;50.998;5.864;2023-06-22T03:35:03;101171.00;;;19.48;75.59
48204;BME280;33994;50.998;5.864;2023-06-22T03:38:06;101170.06;;;19.51;75.79
48204;BME280;33994;50.998;5.864;2023-06-22T03:41:09;101170.78;;;19.54;75.78
48204;BME280;33994;50.998;5.864;2023-06-22T03:44:12;101168.25;;;19.51;76.07
48204;BME280;33994;50.998;5.864;2023-06-22T03:47:17;101169.06;;;19.53;76.25
48204;BME280;33994;50.998;5.864;2023-06-22T03:50:20;101165.47;;;19.54;76.30
48204;BME280;33994;50.998;5.864;2023-06-22T03:53:23;101166.41;;;19.53;76.41
48204;BME280;33994;50.998;5.864;2023-06-22T03:56:27;101161.88;;;19.55;76.47
48204;BME280;33994;50.998;5.864;2023-06-22T03:59:30;101153.78;;;19.58;76.36
48204;BME280;33994;50.998;5.864;2023-06-22T04:02:34;101159.72;;;19.63;76.53
48204;BME280;33994;50.998;5.864;2023-06-22T04:05:38;101161.59;;;19.61;76.60
48204;BME280;33994;50.998;5.864;2023-06-22T04:08:41;101163.41;;;19.61;76.81
48204;BME280;33994;50.998;5.864;2023-06-22T04:11:44;101170.47;;;19.60;76.88
48204;BME280;33994;50.998;5.864;2023-06-22T04:14:48;101160.78;;;19.59;77.13
48204;BME280;33994;50.998;5.864;2023-06-22T04:17:54;101162.50;;;19.60;77.34
48204;BME280;33994;50.998;5.864;2023-06-22T04:20:57;101162.59;;;19.59;77.59
48204;BME280;33994;50.998;5.864;2023-06-22T04:24:00;101168.13;;;19.54;77.68
48204;BME280;33994;50.998;5.864;2023-06-22T04:27:04;101160.03;;;19.57;77.95
48204;BME280;33994;50.998;5.864;2023-06-22T04:30:08;101167.91;;;19.59;77.94
48204;BME280;33994;50.998;5.864;2023-06-22T04:33:13;101166.75;;;19.64;77.88
48204;BME280;33994;50.998;5.864;2023-06-22T04:36:17;101158.72;;;19.66;78.00
48204;BME280;33994;50.998;5.864;2023-06-22T04:39:20;101164.75;;;19.69;77.91
48204;BME280;33994;50.998;5.864;2023-06-22T04:42:23;101168.03;;;19.75;77.94
48204;BME280;33994;50.998;5.864;2023-06-22T04:45:26;101169.53;;;19.80;77.82
48204;BME280;33994;50.998;5.864;2023-06-22T04:48:31;101172.97;;;19.82;77.62
48204;BME280;33994;50.998;5.864;2023-06-22T04:51:34;101178.22;;;19.84;77.66
48204;BME280;33994;50.998;5.864;2023-06-22T04:54:38;101177.34;;;19.83;77.67
48204;BME280;33994;50.998;5.864;2023-06-22T04:57:41;101181.50;;;19.89;77.63
48204;BME280;33994;50.998;5.864;2023-06-22T05:00:45;101186.66;;;19.92;77.70
48204;BME280;33994;50.998;5.864;2023-06-22T05:03:49;101184.00;;;19.92;77.79
48204;BME280;33994;50.998;5.864;2023-06-22T05:06:53;101193.69;;;19.93;77.83
48204;BME280;33994;50.998;5.864;2023-06-22T05:09:56;101180.50;;;19.91;77.87
48204;BME280;33994;50.998;5.864;2023-06-22T05:13:00;101174.34;;;19.91;78.03
48204;BME280;33994;50.998;5.864;2023-06-22T05:16:03;101175.09;;;19.93;77.88
48204;BME280;33994;50.998;5.864;2023-06-22T05:19:08;101174.97;;;19.96;77.97
48204;BME280;33994;50.998;5.864;2023-06-22T05:22:11;101180.13;;;19.99;77.95
48204;BME280;33994;50.998;5.864;2023-06-22T05:25:14;101179.19;;;20.00;77.88
48204;BME280;33994;50.998;5.864;2023-06-22T05:28:18;101181.69;;;20.03;77.59
48204;BME280;33994;50.998;5.864;2023-06-22T05:31:21;101179.81;;;20.05;77.41
48204;BME280;33994;50.998;5.864;2023-06-22T05:34:25;101183.19;;;20.09;77.62
48204;BME280;33994;50.998;5.864;2023-06-22T05:37:28;101193.88;;;20.07;77.44
48204;BME280;33994;50.998;5.864;2023-06-22T05:40:31;101197.50;;;20.06;77.63
48204;BME280;33994;50.998;5.864;2023-06-22T05:43:35;101199.25;;;20.06;78.11
48204;BME280;33994;50.998;5.864;2023-06-22T05:46:40;101198.41;;;20.05;79.20
48204;BME280;33994;50.998;5.864;2023-06-22T05:49:45;101200.28;;;20.03;79.80
48204;BME280;33994;50.998;5.864;2023-06-22T05:52:48;101194.25;;;20.00;80.24
48204;BME280;33994;50.998;5.864;2023-06-22T05:55:51;101199.72;;;19.97;80.97
48204;BME280;33994;50.998;5.864;2023-06-22T05:58:55;101194.41;;;19.97;82.16
48204;BME280;33994;50.998;5.864;2023-06-22T06:01:58;101195.03;;;20.02;82.66
48204;BME280;33994;50.998;5.864;2023-06-22T06:05:02;101194.88;;;20.05;83.19
48204;BME280;33994;50.998;5.864;2023-06-22T06:08:06;101198.53;;;20.02;83.17
48204;BME280;33994;50.998;5.864;2023-06-22T06:11:09;101194.31;;;19.98;82.91
48204;BME280;33994;50.998;5.864;2023-06-22T06:14:13;101204.03;;;19.99;83.14
48204;BME280;33994;50.998;5.864;2023-06-22T06:17:16;101201.56;;;19.94;83.01
48204;BME280;33994;50.998;5.864;2023-06-22T06:20:22;101205.25;;;19.92;83.16
48204;BME280;33994;50.998;5.864;2023-06-22T06:23:25;101197.28;;;19.92;83.05
48204;BME280;33994;50.998;5.864;2023-06-22T06:26:28;101195.56;;;19.91;82.94
48204;BME280;33994;50.998;5.864;2023-06-22T06:29:32;101190.41;;;19.88;82.66
48204;BME280;33994;50.998;5.864;2023-06-22T06:32:35;101185.09;;;19.88;82.44
48204;BME280;33994;50.998;5.864;2023-06-22T06:35:39;101185.97;;;19.88;82.65
48204;BME280;33994;50.998;5.864;2023-06-22T06:38:43;101177.00;;;19.91;82.71
48204;BME280;33994;50.998;5.864;2023-06-22T06:41:46;101175.91;;;19.95;82.54
48204;BME280;33994;50.998;5.864;2023-06-22T06:44:49;101170.44;;;19.98;82.41
48204;BME280;33994;50.998;5.864;2023-06-22T06:47:52;101170.13;;;20.04;82.37
48204;BME280;33994;50.998;5.864;2023-06-22T06:50:57;101170.38;;;20.17;81.63
48204;BME280;33994;50.998;5.864;2023-06-22T06:54:00;101160.88;;;20.30;81.08
48204;BME280;33994;50.998;5.864;2023-06-22T06:57:03;101151.38;;;20.44;79.97
48204;BME280;33994;50.998;5.864;2023-06-22T07:00:08;101145.97;;;20.62;79.32
48204;BME280;33994;50.998;5.864;2023-06-22T07:03:11;101144.31;;;20.77;78.31
48204;BME280;33994;50.998;5.864;2023-06-22T07:06:16;101149.84;;;20.90;77.04
48204;BME280;33994;50.998;5.864;2023-06-22T07:09:19;101145.47;;;20.89;76.29
48204;BME280;33994;50.998;5.864;2023-06-22T07:12:22;101130.06;;;20.96;76.24
48204;BME280;33994;50.998;5.864;2023-06-22T07:15:26;101128.53;;;21.07;75.69
48204;BME280;33994;50.998;5.864;2023-06-22T07:18:29;101121.97;;;21.14;75.66
48204;BME280;33994;50.998;5.864;2023-06-22T07:21:33;101115.13;;;21.26;75.46
48204;BME280;33994;50.998;5.864;2023-06-22T07:24:37;101107.09;;;21.59;74.62
48204;BME280;33994;50.998;5.864;2023-06-22T07:27:44;101106.69;;;21.81;73.39
48204;BME280;33994;50.998;5.864;2023-06-22T07:30:48;101103.78;;;21.86;72.35
48204;BME280;33994;50.998;5.864;2023-06-22T07:33:51;101094.44;;;21.79;73.24
48204;BME280;33994;50.998;5.864;2023-06-22T07:36:56;101080.06;;;21.81;73.00
48204;BME280;33994;50.998;5.864;2023-06-22T07:39:59;101076.97;;;21.89;72.37
48204;BME280;33994;50.998;5.864;2023-06-22T07:43:02;101064.38;;;21.77;72.81
48204;BME280;33994;50.998;5.864;2023-06-22T07:46:05;101069.19;;;21.86;73.00
48204;BME280;33994;50.998;5.864;2023-06-22T07:49:08;101073.63;;;21.85;73.29
48204;BME280;33994;50.998;5.864;2023-06-22T07:52:13;101066.31;;;21.89;73.51
48204;BME280;33994;50.998;5.864;2023-06-22T07:55:16;101066.41;;;22.03;73.29
48204;BME280;33994;50.998;5.864;2023-06-22T07:58:19;101070.09;;;22.01;73.54
48204;BME280;33994;50.998;5.864;2023-06-22T08:01:22;101065.81;;;21.98;73.40
48204;BME280;33994;50.998;5.864;2023-06-22T08:04:25;101066.69;;;21.99;73.97
48204;BME280;33994;50.998;5.864;2023-06-22T08:07:30;101059.41;;;22.17;73.51
48204;BME280;33994;50.998;5.864;2023-06-22T08:10:33;101060.94;;;22.35;72.17
48204;BME280;33994;50.998;5.864;2023-06-22T08:13:36;101052.88;;;22.37;72.13
48204;BME280;33994;50.998;5.864;2023-06-22T08:16:41;101041.06;;;22.26;72.63
48204;BME280;33994;50.998;5.864;2023-06-22T08:19:44;101036.09;;;22.34;72.60
48204;BME280;33994;50.998;5.864;2023-06-22T08:22:49;101038.31;;;22.42;72.48
48204;BME280;33994;50.998;5.864;2023-06-22T08:25:52;101039.81;;;22.46;72.71
48204;BME280;33994;50.998;5.864;2023-06-22T08:28:55;101040.13;;;22.56;72.38
48204;BME280;33994;50.998;5.864;2023-06-22T08:31:58;101039.19;;;22.57;72.22
48204;BME280;33994;50.998;5.864;2023-06-22T08:35:02;101040.91;;;22.44;72.34
48204;BME280;33994;50.998;5.864;2023-06-22T08:38:06;101035.56;;;22.44;72.34
48204;BME280;33994;50.998;5.864;2023-06-22T08:41:09;101039.66;;;22.49;72.17
48204;BME280;33994;50.998;5.864;2023-06-22T08:44:13;101034.50;;;22.46;72.81
48204;BME280;33994;50.998;5.864;2023-06-22T08:47:16;101024.63;;;22.48;72.84
48204;BME280;33994;50.998;5.864;2023-06-22T08:50:19;101021.47;;;22.56;72.75
48204;BME280;33994;50.998;5.864;2023-06-22T08:53:24;101017.66;;;22.46;73.11
48204;BME280;33994;50.998;5.864;2023-06-22T08:56:27;101019.28;;;22.48;73.71
48204;BME280;33994;50.998;5.864;2023-06-22T08:59:30;101010.34;;;22.64;73.29
48204;BME280;33994;50.998;5.864;2023-06-22T09:02:33;101017.78;;;22.73;73.05
48204;BME280;33994;50.998;5.864;2023-06-22T09:05:37;100994.19;;;22.67;73.36
48204;BME280;33994;50.998;5.864;2023-06-22T09:08:41;101003.09;;;22.66;73.79
48204;BME280;33994;50.998;5.864;2023-06-22T09:11:44;100994.94;;;22.69;73.62
48204;BME280;33994;50.998;5.864;2023-06-22T09:14:47;100997.22;;;22.75;73.97
48204;BME280;33994;50.998;5.864;2023-06-22T09:17:50;101000.25;;;22.83;74.35
48204;BME280;33994;50.998;5.864;2023-06-22T09:20:54;100992.81;;;22.88;74.14
48204;BME280;33994;50.998;5.864;2023-06-22T09:23:58;101000.72;;;22.90;74.13
48204;BME280;33994;50.998;5.864;2023-06-22T09:27:02;100987.94;;;22.95;74.11
48204;BME280;33994;50.998;5.864;2023-06-22T09:30:06;100989.56;;;22.97;73.70
48204;BME280;33994;50.998;5.864;2023-06-22T09:33:09;100984.97;;;22.99;73.27
48204;BME280;33994;50.998;5.864;2023-06-22T09:36:12;100988.41;;;23.01;72.95
48204;BME280;33994;50.998;5.864;2023-06-22T09:39:17;100985.75;;;23.01;73.21
48204;BME280;33994;50.998;5.864;2023-06-22T09:42:20;100980.22;;;23.04;73.17
48204;BME280;33994;50.998;5.864;2023-06-22T09:45:24;100984.59;;;23.05;73.08
48204;BME280;33994;50.998;5.864;2023-06-22T09:48:27;100994.13;;;23.10;73.38
48204;BME280;33994;50.998;5.864;2023-06-22T09:51:30;101006.59;;;23.09;73.57
48204;BME280;33994;50.998;5.864;2023-06-22T09:54:35;101013.81;;;23.07;73.54
48204;BME280;33994;50.998;5.864;2023-06-22T09:57:38;101030.50;;;23.11;73.84
48204;BME280;33994;50.998;5.864;2023-06-22T10:00:42;101044.03;;;23.07;73.98
48204;BME280;33994;50.998;5.864;2023-06-22T10:03:45;101055.28;;;22.98;73.91
48204;BME280;33994;50.998;5.864;2023-06-22T10:06:48;101054.91;;;22.90;74.85
48204;BME280;33994;50.998;5.864;2023-06-22T10:09:52;101067.59;;;22.87;75.76
48204;BME280;33994;50.998;5.864;2023-06-22T10:12:57;101064.34;;;22.81;76.19
48204;BME280;33994;50.998;5.864;2023-06-22T10:16:00;101071.47;;;22.81;76.79
48204;BME280;33994;50.998;5.864;2023-06-22T10:19:03;101066.16;;;22.81;77.38
48204;BME280;33994;50.998;5.864;2023-06-22T10:22:07;101062.16;;;22.74;78.03
48204;BME280;33994;50.998;5.864;2023-06-22T10:25:12;101070.53;;;22.68;78.95
48204;BME280;33994;50.998;5.864;2023-06-22T10:28:15;101065.34;;;22.65;80.17
48204;BME280;33994;50.998;5.864;2023-06-22T10:31:18;101059.75;;;22.55;80.41
48204;BME280;33994;50.998;5.864;2023-06-22T10:34:22;101063.13;;;22.43;81.52
48204;BME280;33994;50.998;5.864;2023-06-22T10:37:25;101062.97;;;22.31;82.91
48204;BME280;33994;50.998;5.864;2023-06-22T10:40:30;101050.69;;;22.29;83.75
48204;BME280;33994;50.998;5.864;2023-06-22T10:43:33;101041.81;;;22.28;83.88
48204;BME280;33994;50.998;5.864;2023-06-22T10:46:36;101031.91;;;22.16;85.60
48204;BME280;33994;50.998;5.864;2023-06-22T10:49:39;101003.63;;;21.99;87.75
48204;BME280;33994;50.998;5.864;2023-06-22T10:52:43;100964.75;;;21.81;90.41
48204;BME280;33994;50.998;5.864;2023-06-22T10:55:47;100951.59;;;21.63;93.59
48204;BME280;33994;50.998;5.864;2023-06-22T10:58:51;100952.91;;;21.56;95.11
48204;BME280;33994;50.998;5.864;2023-06-22T11:01:55;100966.50;;;21.52;96.43
48204;BME280;33994;50.998;5.864;2023-06-22T11:04:58;100962.59;;;21.57;97.58
48204;BME280;33994;50.998;5.864;2023-06-22T11:08:01;100953.84;;;21.55;97.21
48204;BME280;33994;50.998;5.864;2023-06-22T11:11:06;100968.50;;;21.62;98.40
48204;BME280;33994;50.998;5.864;2023-06-22T11:14:09;100955.22;;;21.77;99.49
48204;BME280;33994;50.998;5.864;2023-06-22T11:17:12;100955.13;;;21.94;100.00
48204;BME280;33994;50.998;5.864;2023-06-22T11:20:15;100950.66;;;22.09;99.69
48204;BME280;33994;50.998;5.864;2023-06-22T11:23:18;100940.69;;;22.13;97.45
48204;BME280;33994;50.998;5.864;2023-06-22T11:26:23;100935.38;;;22.13;97.17
48204;BME280;33994;50.998;5.864;2023-06-22T11:29:26;100933.25;;;22.18;96.58
48204;BME280;33994;50.998;5.864;2023-06-22T11:32:29;100925.09;;;22.21;96.39
48204;BME280;33994;50.998;5.864;2023-06-22T11:35:32;100928.19;;;22.27;95.65
48204;BME280;33994;50.998;5.864;2023-06-22T11:38:35;100911.19;;;22.30;95.44
48204;BME280;33994;50.998;5.864;2023-06-22T11:41:40;100897.78;;;22.31;94.63
48204;BME280;33994;50.998;5.864;2023-06-22T11:44:43;100891.50;;;22.32;94.51
48204;BME280;33994;50.998;5.864;2023-06-22T11:47:46;100887.75;;;22.35;94.70
48204;BME280;33994;50.998;5.864;2023-06-22T11:50:49;100888.72;;;22.34;94.38
48204;BME280;33994;50.998;5.864;2023-06-22T11:53:53;100889.97;;;22.28;93.96
48204;BME280;33994;50.998;5.864;2023-06-22T11:56:58;100899.84;;;22.26;93.64
48204;BME280;33994;50.998;5.864;2023-06-22T12:00:01;100897.19;;;22.26;93.52
48204;BME280;33994;50.998;5.864;2023-06-22T12:03:05;100898.91;;;22.27;93.18
48204;BME280;33994;50.998;5.864;2023-06-22T12:06:08;100897.50;;;22.22;93.61
48204;BME280;33994;50.998;5.864;2023-06-22T12:09:12;100894.53;;;22.12;93.25
48204;BME280;33994;50.998;5.864;2023-06-22T12:12:17;100901.22;;;22.05;92.75
48204;BME280;33994;50.998;5.864;2023-06-22T12:15:20;100890.16;;;21.97;92.74
48204;BME280;33994;50.998;5.864;2023-06-22T12:18:23;100885.25;;;21.89;93.34
48204;BME280;33994;50.998;5.864;2023-06-22T12:21:26;100879.38;;;21.84;93.17
48204;BME280;33994;50.998;5.864;2023-06-22T12:24:29;100882.03;;;21.84;93.13
48204;BME280;33994;50.998;5.864;2023-06-22T12:27:34;100881.19;;;21.83;93.58
48204;BME280;33994;50.998;5.864;2023-06-22T12:30:37;100870.91;;;21.77;93.45
48204;BME280;33994;50.998;5.864;2023-06-22T12:33:40;100876.22;;;21.77;93.11
48204;BME280;33994;50.998;5.864;2023-06-22T12:36:43;100863.97;;;21.75;92.77
48204;BME280;33994;50.998;5.864;2023-06-22T12:39:46;100867.97;;;21.68;92.51
48204;BME280;33994;50.998;5.864;2023-06-22T12:42:50;100851.03;;;21.69;92.74
48204;BME280;33994;50.998;5.864;2023-06-22T12:45:53;100845.91;;;21.66;92.48
48204;BME280;33994;50.998;5.864;2023-06-22T12:48:57;100840.38;;;21.69;92.85
48204;BME280;33994;50.998;5.864;2023-06-22T12:52:00;100847.22;;;21.73;92.22
48204;BME280;33994;50.998;5.864;2023-06-22T12:55:03;100837.38;;;21.75;91.43
48204;BME280;33994;50.998;5.864;2023-06-22T12:58:07;100840.56;;;21.66;90.93
48204;BME280;33994;50.998;5.864;2023-06-22T13:01:11;100837.63;;;21.56;90.52
48204;BME280;33994;50.998;5.864;2023-06-22T13:04:14;100836.34;;;21.47;91.17
48204;BME280;33994;50.998;5.864;2023-06-22T13:07:17;100833.13;;;21.42;91.31
48204;BME280;33994;50.998;5.864;2023-06-22T13:10:20;100815.47;;;21.41;91.24
48204;BME280;33994;50.998;5.864;2023-06-22T13:13:25;100812.03;;;21.39;91.04
48204;BME280;33994;50.998;5.864;2023-06-22T13:16:28;100796.25;;;21.36;91.12
48204;BME280;33994;50.998;5.864;2023-06-22T13:19:31;100788.47;;;21.33;90.74
48204;BME280;33994;50.998;5.864;2023-06-22T13:22:35;100775.88;;;21.21;91.37
48204;BME280;33994;50.998;5.864;2023-06-22T13:25:39;100776.94;;;21.18;91.30
48204;BME280;33994;50.998;5.864;2023-06-22T13:28:43;100777.66;;;21.06;91.43
48204;BME280;33994;50.998;5.864;2023-06-22T13:31:46;100787.34;;;21.07;91.78
48204;BME280;33994;50.998;5.864;2023-06-22T13:34:49;100797.56;;;20.99;91.82
48204;BME280;33994;50.998;5.864;2023-06-22T13:37:52;100797.06;;;20.92;92.12
48204;BME280;33994;50.998;5.864;2023-06-22T13:40:55;100779.59;;;20.88;92.77
48204;BME280;33994;50.998;5.864;2023-06-22T13:44:00;100776.81;;;20.89;92.51
48204;BME280;33994;50.998;5.864;2023-06-22T13:47:04;100780.72;;;20.84;92.45
48204;BME280;33994;50.998;5.864;2023-06-22T13:50:08;100767.78;;;20.78;92.68
48204;BME280;33994;50.998;5.864;2023-06-22T13:53:11;100752.22;;;20.72;93.04
48204;BME280;33994;50.998;5.864;2023-06-22T13:56:14;100732.94;;;20.68;92.92
48204;BME280;33994;50.998;5.864;2023-06-22T13:59:19;100724.56;;;20.60;93.73
48204;BME280;33994;50.998;5.864;2023-06-22T14:02:22;100712.47;;;20.54;94.28
48204;BME280;33994;50.998;5.864;2023-06-22T14:05:25;100717.59;;;20.57;94.13
48204;BME280;33994;50.998;5.864;2023-06-22T14:08:28;100706.19;;;20.55;93.95
48204;BME280;33994;50.998;5.864;2023-06-22T14:11:31;100688.16;;;20.46;97.29
48204;BME280;33994;50.998;5.864;2023-06-22T14:14:36;100676.69;;;20.30;100.00
48204;BME280;33994;50.998;5.864;2023-06-22T14:17:39;100661.19;;;20.22;100.00
48204;BME280;33994;50.998;5.864;2023-06-22T14:20:43;100667.13;;;20.11;100.00
48204;BME280;33994;50.998;5.864;2023-06-22T14:23:46;100672.75;;;20.05;100.00
48204;BME280;33994;50.998;5.864;2023-06-22T14:26:49;100651.69;;;20.02;100.00
48204;BME280;33994;50.998;5.864;2023-06-22T14:29:54;100660.44;;;20.04;100.00
48204;BME280;33994;50.998;5.864;2023-06-22T14:32:57;100653.69;;;19.99;100.00
48204;BME280;33994;50.998;5.864;2023-06-22T14:36:00;100648.47;;;19.97;100.00
48204;BME280;33994;50.998;5.864;2023-06-22T14:39:03;100646.16;;;19.91;100.00
48204;BME280;33994;50.998;5.864;2023-06-22T14:42:06;100638.72;;;19.82;100.00
48204;BME280;33994;50.998;5.864;2023-06-22T14:45:12;100631.09;;;19.76;100.00
48204;BME280;33994;50.998;5.864;2023-06-22T14:48:16;100614.94;;;19.64;100.00
48204;BME280;33994;50.998;5.864;2023-06-22T14:51:19;100610.81;;;19.59;100.00
48204;BME280;33994;50.998;5.864;2023-06-22T14:54:21;100598.84;;;19.52;100.00
48204;BME280;33994;50.998;5.864;2023-06-22T14:57:25;100596.75;;;19.41;100.00
48204;BME280;33994;50.998;5.864;2023-06-22T15:00:30;100604.25;;;19.33;100.00
48204;BME280;33994;50.998;5.864;2023-06-22T15:03:34;100569.22;;;19.28;100.00
48204;BME280;33994;50.998;5.864;2023-06-22T15:06:37;100576.56;;;19.23;100.00
48204;BME280;33994;50.998;5.864;2023-06-22T15:09:40;100594.50;;;19.17;100.00
48204;BME280;33994;50.998;5.864;2023-06-22T15:12:43;100564.91;;;19.09;100.00
48204;BME280;33994;50.998;5.864;2023-06-22T15:15:48;100570.63;;;19.02;100.00
48204;BME280;33994;50.998;5.864;2023-06-22T15:18:51;100590.53;;;18.93;100.00
48204;BME280;33994;50.998;5.864;2023-06-22T15:21:54;100605.97;;;18.85;100.00
48204;BME280;33994;50.998;5.864;2023-06-22T15:24:58;100601.09;;;18.77;100.00
48204;BME280;33994;50.998;5.864;2023-06-22T15:28:01;100609.19;;;18.74;100.00
48204;BME280;33994;50.998;5.864;2023-06-22T15:31:05;100627.97;;;18.69;100.00
48204;BME280;33994;50.998;5.864;2023-06-22T15:34:09;100606.31;;;18.61;100.00
48204;BME280;33994;50.998;5.864;2023-06-22T15:37:12;100593.63;;;18.51;100.00
48204;BME280;33994;50.998;5.864;2023-06-22T15:40:15;100610.66;;;18.45;100.00
48204;BME280;33994;50.998;5.864;2023-06-22T15:43:18;100614.72;;;18.35;100.00
48204;BME280;33994;50.998;5.864;2023-06-22T15:46:22;100649.28;;;18.32;100.00
48204;BME280;33994;50.998;5.864;2023-06-22T15:49:26;100668.09;;;18.26;100.00
48204;BME280;33994;50.998;5.864;2023-06-22T15:52:29;100682.28;;;18.24;100.00
48204;BME280;33994;50.998;5.864;2023-06-22T15:55:32;100697.31;;;18.24;100.00
48204;BME280;33994;50.998;5.864;2023-06-22T15:58:35;100720.09;;;18.27;100.00